createdAt,value
2018-01-07T00:00:08.357Z,1011.2
2018-01-07T00:01:10.447Z,1011.3
2018-01-07T00:02:12.552Z,1011.3
2018-01-07T00:03:14.735Z,1011.3
2018-01-07T00:04:16.387Z,1011.3
2018-01-07T00:05:18.151Z,1011.2
2018-01-07T00:06:19.832Z,1011.2
2018-01-07T00:07:21.859Z,1011.3
2018-01-07T00:08:24.265Z,1011.3
2018-01-07T00:09:26.999Z,1011.3
2018-01-07T00:10:29.596Z,1011.3
2018-01-07T00:11:32.287Z,1011.3
2018-01-07T00:12:34.061Z,1011.3
2018-01-07T00:13:36.908Z,1011.3
2018-01-07T00:14:41.339Z,1011.3
2018-01-07T00:15:43.365Z,1011.3
2018-01-07T00:16:45.457Z,1011.3
2018-01-07T00:17:47.507Z,1011.3
2018-01-07T00:18:49.307Z,1011.3
2018-01-07T00:19:51.197Z,1011.4
2018-01-07T00:20:53.236Z,1011.4
2018-01-07T00:21:55.230Z,1011.4
2018-01-07T00:22:59.823Z,1011.4
2018-01-07T00:24:01.497Z,1011.5
2018-01-07T00:25:03.509Z,1011.5
2018-01-07T00:26:05.795Z,1011.5
2018-01-07T00:27:07.960Z,1011.5
2018-01-07T00:28:10.332Z,1011.5
2018-01-07T00:29:12.008Z,1011.6
2018-01-07T00:30:13.781Z,1011.6
2018-01-07T00:31:15.430Z,1011.6
2018-01-07T00:32:17.118Z,1011.6
2018-01-07T00:33:18.822Z,1011.6
2018-01-07T00:34:20.673Z,1011.6
2018-01-07T00:35:22.343Z,1011.6
2018-01-07T00:36:24.797Z,1011.6
2018-01-07T00:37:26.744Z,1011.6
2018-01-07T00:38:28.827Z,1011.7
2018-01-07T00:39:30.954Z,1011.7
2018-01-07T00:40:32.997Z,1011.7
2018-01-07T00:41:34.986Z,1011.7
2018-01-07T00:42:36.692Z,1011.7
2018-01-07T00:43:38.383Z,1011.7
2018-01-07T00:44:40.048Z,1011.7
2018-01-07T00:45:41.749Z,1011.8
2018-01-07T00:46:43.504Z,1011.8
2018-01-07T00:47:45.267Z,1011.8
2018-01-07T00:48:47.007Z,1011.8
2018-01-07T00:49:48.964Z,1011.9
2018-01-07T00:50:50.832Z,1011.9
2018-01-07T00:51:52.786Z,1012.0
2018-01-07T00:52:54.665Z,1011.9
2018-01-07T00:53:56.809Z,1011.9
2018-01-07T00:54:59.354Z,1012.0
2018-01-07T00:56:01.106Z,1011.9
2018-01-07T00:57:03.567Z,1011.9
2018-01-07T00:58:05.845Z,1011.9
2018-01-07T00:59:07.945Z,1012.0
2018-01-07T01:00:09.674Z,1012.0
2018-01-07T01:01:11.715Z,1012.0
2018-01-07T01:02:13.878Z,1012.0
2018-01-07T01:03:15.750Z,1012.1
2018-01-07T01:04:17.454Z,1012.1
2018-01-07T01:05:19.701Z,1012.0
2018-01-07T01:06:21.442Z,1012.1
2018-01-07T01:07:23.313Z,1012.1
2018-01-07T01:08:24.996Z,1012.2
2018-01-07T01:09:26.684Z,1012.2
2018-01-07T01:10:29.860Z,1012.3
2018-01-07T01:11:32.636Z,1012.3
2018-01-07T01:12:34.611Z,1012.3
2018-01-07T01:13:37.628Z,1012.4
2018-01-07T01:14:40.693Z,1012.4
2018-01-07T01:15:43.609Z,1012.4
2018-01-07T01:16:45.593Z,1012.4
2018-01-07T01:17:47.464Z,1012.4
2018-01-07T01:18:49.193Z,1012.4
2018-01-07T01:19:50.948Z,1012.4
2018-01-07T01:20:53.394Z,1012.4
2018-01-07T01:21:55.318Z,1012.5
2018-01-07T01:22:57.520Z,1012.5
2018-01-07T01:23:59.566Z,1012.5
2018-01-07T01:25:01.623Z,1012.5
2018-01-07T01:26:03.364Z,1012.5
2018-01-07T01:27:05.477Z,1012.5
2018-01-07T01:28:07.190Z,1012.5
2018-01-07T01:29:09.358Z,1012.6
2018-01-07T01:30:11.055Z,1012.5
2018-01-07T01:31:12.876Z,1012.6
2018-01-07T01:32:14.675Z,1012.6
2018-01-07T01:33:16.447Z,1012.6
2018-01-07T01:34:18.238Z,1012.7
2018-01-07T01:35:19.938Z,1012.7
2018-01-07T01:36:21.711Z,1012.7
2018-01-07T01:37:23.432Z,1012.7
2018-01-07T01:38:26.098Z,1012.8
2018-01-07T01:39:28.188Z,1012.8
2018-01-07T01:40:30.250Z,1012.8
2018-01-07T01:41:32.313Z,1012.8
2018-01-07T01:42:34.424Z,1012.8
2018-01-07T01:43:36.530Z,1012.8
2018-01-07T01:44:38.777Z,1012.8
2018-01-07T01:45:40.891Z,1012.8
2018-01-07T01:46:42.568Z,1012.8
2018-01-07T01:47:44.310Z,1012.8
2018-01-07T01:48:46.774Z,1012.9
2018-01-07T01:49:48.515Z,1012.9
2018-01-07T01:50:50.231Z,1012.9
2018-01-07T01:51:52.019Z,1012.9
2018-01-07T01:52:56.638Z,1012.9
2018-01-07T01:53:59.600Z,1012.9
2018-01-07T01:55:01.618Z,1013.0
2018-01-07T01:56:03.275Z,1012.9
2018-01-07T01:57:05.318Z,1013.0
2018-01-07T01:58:07.305Z,1013.0
2018-01-07T01:59:09.234Z,1013.0
2018-01-07T02:00:11.866Z,1012.9
2018-01-07T02:01:13.591Z,1013.0
2018-01-07T02:02:15.872Z,1012.9
2018-01-07T02:03:18.143Z,1013.0
2018-01-07T02:04:20.258Z,1013.0
2018-01-07T02:05:23.157Z,1013.1
2018-01-07T02:06:25.254Z,1013.0
2018-01-07T02:07:27.401Z,1013.1
2018-01-07T02:08:29.740Z,1013.1
2018-01-07T02:09:31.612Z,1013.0
2018-01-07T02:10:33.575Z,1013.0
2018-01-07T02:11:35.308Z,1013.0
2018-01-07T02:12:37.814Z,1013.1
2018-01-07T02:13:42.306Z,1013.1
2018-01-07T02:14:43.993Z,1013.0
2018-01-07T02:15:45.689Z,1013.0
2018-01-07T02:16:47.538Z,1013.0
2018-01-07T02:17:49.611Z,1013.1
2018-01-07T02:18:52.087Z,1013.0
2018-01-07T02:19:53.757Z,1013.1
2018-01-07T02:20:56.657Z,1013.0
2018-01-07T02:21:58.702Z,1013.1
2018-01-07T02:23:01.314Z,1013.2
2018-01-07T02:24:03.265Z,1013.2
2018-01-07T02:25:05.333Z,1013.1
2018-01-07T02:26:07.368Z,1013.2
2018-01-07T02:27:09.394Z,1013.2
2018-01-07T02:28:11.122Z,1013.2
2018-01-07T02:29:12.846Z,1013.2
2018-01-07T02:30:14.809Z,1013.2
2018-01-07T02:31:16.877Z,1013.2
2018-01-07T02:32:18.919Z,1013.3
2018-01-07T02:33:20.976Z,1013.3
2018-01-07T02:34:23.026Z,1013.3
2018-01-07T02:35:25.323Z,1013.3
2018-01-07T02:36:27.362Z,1013.4
2018-01-07T02:37:29.101Z,1013.3
2018-01-07T02:38:31.450Z,1013.3
2018-01-07T02:39:33.184Z,1013.3
2018-01-07T02:40:35.184Z,1013.3
2018-01-07T02:41:38.079Z,1013.3
2018-01-07T02:42:39.997Z,1013.4
2018-01-07T02:43:41.698Z,1013.4
2018-01-07T02:44:44.430Z,1013.4
2018-01-07T02:45:46.690Z,1013.4
2018-01-07T02:46:48.431Z,1013.4
2018-01-07T02:47:50.418Z,1013.5
2018-01-07T02:48:52.111Z,1013.4
2018-01-07T02:49:53.843Z,1013.5
2018-01-07T02:50:55.554Z,1013.5
2018-01-07T02:51:57.359Z,1013.5
2018-01-07T02:52:59.484Z,1013.5
2018-01-07T02:54:02.130Z,1013.6
2018-01-07T02:55:04.248Z,1013.6
2018-01-07T02:56:06.395Z,1013.6
2018-01-07T02:57:08.915Z,1013.6
2018-01-07T02:58:11.330Z,1013.6
2018-01-07T02:59:13.069Z,1013.6
2018-01-07T03:00:15.345Z,1013.6
2018-01-07T03:01:19.805Z,1013.6
2018-01-07T03:02:22.313Z,1013.7
2018-01-07T03:03:26.831Z,1013.7
2018-01-07T03:04:28.529Z,1013.7
2018-01-07T03:05:30.593Z,1013.7
2018-01-07T03:06:32.307Z,1013.7
2018-01-07T03:07:34.028Z,1013.7
2018-01-07T03:08:35.759Z,1013.7
2018-01-07T03:09:37.496Z,1013.7
2018-01-07T03:11:50.160Z,1013.7
2018-01-07T03:12:51.999Z,1013.7
2018-01-07T03:13:53.781Z,1013.7
2018-01-07T03:14:56.005Z,1013.7
2018-01-07T03:15:59.312Z,1013.8
2018-01-07T03:17:01.559Z,1013.8
2018-01-07T03:18:06.325Z,1013.8
2018-01-07T03:19:08.301Z,1013.8
2018-01-07T03:20:10.352Z,1013.8
2018-01-07T03:21:12.787Z,1013.9
2018-01-07T03:22:17.129Z,1013.9
2018-01-07T03:23:19.102Z,1013.8
2018-01-07T03:24:24.398Z,1013.8
2018-01-07T03:25:27.295Z,1013.8
2018-01-07T03:26:29.642Z,1013.9
2018-01-07T03:27:34.068Z,1013.9
2018-01-07T03:28:35.903Z,1013.9
2018-01-07T03:29:37.998Z,1013.8
2018-01-07T03:30:40.071Z,1013.9
2018-01-07T03:31:42.127Z,1013.8
2018-01-07T03:32:44.255Z,1013.9
2018-01-07T03:33:47.650Z,1013.9
2018-01-07T03:34:51.846Z,1013.8
2018-01-07T03:35:54.093Z,1013.9
2018-01-07T03:36:56.165Z,1013.9
2018-01-07T03:37:59.840Z,1013.8
2018-01-07T03:39:01.968Z,1013.9
2018-01-07T03:40:04.022Z,1013.9
2018-01-07T03:41:09.742Z,1013.9
2018-01-07T03:42:11.652Z,1013.9
2018-01-07T03:43:13.936Z,1013.9
2018-01-07T03:44:16.056Z,1013.8
2018-01-07T03:45:18.329Z,1013.9
2018-01-07T03:46:20.650Z,1013.9
2018-01-07T03:47:22.815Z,1013.9
2018-01-07T03:48:24.987Z,1013.9
2018-01-07T03:49:27.200Z,1013.9
2018-01-07T03:50:29.430Z,1014.0
2018-01-07T03:51:33.832Z,1013.9
2018-01-07T03:52:36.068Z,1013.9
2018-01-07T03:53:40.529Z,1013.9
2018-01-07T03:54:42.366Z,1013.9
2018-01-07T03:55:44.495Z,1014.0
2018-01-07T03:56:46.586Z,1013.9
2018-01-07T03:57:48.931Z,1014.0
2018-01-07T03:58:51.006Z,1014.0
2018-01-07T03:59:52.949Z,1014.0
2018-01-07T04:00:55.049Z,1014.0
2018-01-07T04:01:57.506Z,1014.0
2018-01-07T04:02:59.608Z,1014.1
2018-01-07T04:04:02.515Z,1014.0
2018-01-07T04:05:05.001Z,1014.1
2018-01-07T04:06:09.984Z,1014.1
2018-01-07T04:07:14.208Z,1014.2
2018-01-07T04:08:16.225Z,1014.2
2018-01-07T04:09:19.699Z,1014.1
2018-01-07T04:10:22.124Z,1014.1
2018-01-07T04:11:24.275Z,1014.0
2018-01-07T04:12:29.696Z,1014.0
2018-01-07T04:13:31.655Z,1014.0
2018-01-07T04:14:33.641Z,1014.0
2018-01-07T04:15:35.760Z,1014.1
2018-01-07T04:16:37.872Z,1014.1
2018-01-07T04:17:39.981Z,1014.1
2018-01-07T04:18:41.931Z,1014.1
2018-01-07T04:19:46.525Z,1014.1
2018-01-07T04:20:48.520Z,1014.1
2018-01-07T04:21:50.667Z,1014.1
2018-01-07T04:22:52.746Z,1014.1
2018-01-07T04:23:54.881Z,1014.1
2018-01-07T04:24:59.158Z,1014.1
2018-01-07T04:26:02.557Z,1014.2
2018-01-07T04:27:04.560Z,1014.1
2018-01-07T04:28:06.657Z,1014.2
2018-01-07T04:29:08.673Z,1014.2
2018-01-07T04:30:11.946Z,1014.2
2018-01-07T04:31:15.379Z,1014.3
2018-01-07T04:32:17.297Z,1014.2
2018-01-07T04:33:19.304Z,1014.2
2018-01-07T04:34:21.360Z,1014.2
2018-01-07T04:35:23.409Z,1014.2
2018-01-07T04:36:25.509Z,1014.2
2018-01-07T04:37:28.751Z,1014.2
2018-01-07T04:38:32.575Z,1014.2
2018-01-07T04:39:34.814Z,1014.2
2018-01-07T04:40:36.850Z,1014.3
2018-01-07T04:41:39.138Z,1014.3
2018-01-07T04:42:41.293Z,1014.3
2018-01-07T04:43:43.385Z,1014.2
2018-01-07T04:44:45.554Z,1014.2
2018-01-07T04:45:47.623Z,1014.3
2018-01-07T04:46:49.898Z,1014.3
2018-01-07T04:47:51.926Z,1014.3
2018-01-07T04:48:53.950Z,1014.3
2018-01-07T04:49:56.031Z,1014.3
2018-01-07T04:50:58.082Z,1014.4
2018-01-07T04:52:01.332Z,1014.4
2018-01-07T04:53:03.374Z,1014.4
2018-01-07T04:54:05.538Z,1014.4
2018-01-07T04:55:07.573Z,1014.4
2018-01-07T04:56:09.759Z,1014.4
2018-01-07T04:57:11.796Z,1014.4
2018-01-07T04:58:14.668Z,1014.5
2018-01-07T04:59:17.024Z,1014.5
2018-01-07T05:00:19.027Z,1014.5
2018-01-07T05:01:21.191Z,1014.5
2018-01-07T05:02:23.338Z,1014.5
2018-01-07T05:03:25.593Z,1014.5
2018-01-07T05:04:28.579Z,1014.5
2018-01-07T05:05:32.211Z,1014.6
2018-01-07T05:06:34.200Z,1014.6
2018-01-07T05:07:36.292Z,1014.6
2018-01-07T05:08:39.042Z,1014.7
2018-01-07T05:09:41.095Z,1014.7
2018-01-07T05:10:43.124Z,1014.7
2018-01-07T05:11:45.264Z,1014.7
2018-01-07T05:12:47.340Z,1014.7
2018-01-07T05:13:49.662Z,1014.7
2018-01-07T05:14:51.752Z,1014.6
2018-01-07T05:15:54.712Z,1014.7
2018-01-07T05:16:57.084Z,1014.7
2018-01-07T05:18:00.111Z,1014.7
2018-01-07T05:19:02.266Z,1014.7
2018-01-07T05:20:04.290Z,1014.8
2018-01-07T05:21:06.537Z,1014.9
2018-01-07T05:22:08.595Z,1014.9
2018-01-07T05:23:10.787Z,1014.9
2018-01-07T05:24:14.531Z,1015.0
2018-01-07T05:25:17.416Z,1015.0
2018-01-07T05:26:19.460Z,1015.0
2018-01-07T05:27:22.168Z,1015.0
2018-01-07T05:28:24.972Z,1015.1
2018-01-07T05:29:27.311Z,1015.1
2018-01-07T05:30:29.277Z,1015.1
2018-01-07T05:31:33.544Z,1015.1
2018-01-07T05:32:35.582Z,1015.1
2018-01-07T05:33:37.694Z,1015.1
2018-01-07T05:34:40.085Z,1015.1
2018-01-07T05:35:42.155Z,1015.1
2018-01-07T05:36:44.167Z,1015.1
2018-01-07T05:37:46.384Z,1015.1
2018-01-07T05:38:49.365Z,1015.0
2018-01-07T05:39:51.334Z,1015.1
2018-01-07T05:40:55.111Z,1015.2
2018-01-07T05:41:57.295Z,1015.2
2018-01-07T05:42:59.343Z,1015.2
2018-01-07T05:44:02.619Z,1015.2
2018-01-07T05:45:04.761Z,1015.3
2018-01-07T05:46:06.853Z,1015.2
2018-01-07T05:47:09.267Z,1015.2
2018-01-07T05:48:11.461Z,1015.2
2018-01-07T05:49:15.510Z,1015.3
2018-01-07T05:50:17.984Z,1015.3
2018-01-07T05:51:20.216Z,1015.4
2018-01-07T05:52:22.358Z,1015.3
2018-01-07T05:53:24.424Z,1015.4
2018-01-07T05:54:27.150Z,1015.4
2018-01-07T05:55:29.460Z,1015.4
2018-01-07T05:56:31.764Z,1015.4
2018-01-07T05:57:34.468Z,1015.4
2018-01-07T05:58:37.236Z,1015.4
2018-01-07T05:59:39.720Z,1015.3
2018-01-07T06:00:42.351Z,1015.4
2018-01-07T06:01:44.456Z,1015.5
2018-01-07T06:02:46.842Z,1015.5
2018-01-07T06:03:49.481Z,1015.5
2018-01-07T06:04:51.718Z,1015.6
2018-01-07T06:05:54.095Z,1015.5
2018-01-07T06:06:57.329Z,1015.5
2018-01-07T06:07:59.624Z,1015.6
2018-01-07T06:09:01.683Z,1015.5
2018-01-07T06:10:03.851Z,1015.5
2018-01-07T06:11:06.434Z,1015.5
2018-01-07T06:12:08.712Z,1015.6
2018-01-07T06:13:11.234Z,1015.6
2018-01-07T06:14:14.505Z,1015.6
2018-01-07T06:15:16.537Z,1015.6
2018-01-07T06:16:18.704Z,1015.6
2018-01-07T06:17:20.778Z,1015.7
2018-01-07T06:18:22.924Z,1015.7
2018-01-07T06:19:25.093Z,1015.6
2018-01-07T06:20:27.227Z,1015.7
2018-01-07T06:21:30.050Z,1015.6
2018-01-07T06:22:33.047Z,1015.7
2018-01-07T06:23:36.008Z,1015.7
2018-01-07T06:24:38.596Z,1015.7
2018-01-07T06:25:40.687Z,1015.8
2018-01-07T06:26:42.854Z,1015.8
2018-01-07T06:27:44.967Z,1015.8
2018-01-07T06:28:47.107Z,1015.8
2018-01-07T06:29:49.173Z,1015.8
2018-01-07T06:30:51.216Z,1015.9
2018-01-07T06:31:53.252Z,1015.9
2018-01-07T06:32:56.305Z,1015.9
2018-01-07T06:33:58.262Z,1015.8
2018-01-07T06:35:01.320Z,1015.9
2018-01-07T06:36:03.440Z,1015.9
2018-01-07T06:37:05.551Z,1015.9
2018-01-07T06:38:07.787Z,1016.0
2018-01-07T06:39:09.992Z,1016.0
2018-01-07T06:40:12.245Z,1016.0
2018-01-07T06:41:14.325Z,1015.9
2018-01-07T06:42:16.837Z,1015.9
2018-01-07T06:43:19.026Z,1016.0
2018-01-07T06:44:21.085Z,1016.0
2018-01-07T06:45:22.956Z,1016.0
2018-01-07T06:46:25.735Z,1015.9
2018-01-07T06:47:27.874Z,1016.0
2018-01-07T06:48:30.890Z,1016.0
2018-01-07T06:49:33.600Z,1016.0
2018-01-07T06:50:35.828Z,1016.0
2018-01-07T06:51:37.857Z,1016.1
2018-01-07T06:52:40.062Z,1016.1
2018-01-07T06:53:42.665Z,1016.1
2018-01-07T06:54:44.802Z,1016.1
2018-01-07T06:55:46.833Z,1016.1
2018-01-07T06:56:49.661Z,1016.2
2018-01-07T06:57:51.830Z,1016.2
2018-01-07T06:58:53.970Z,1016.2
2018-01-07T06:59:56.865Z,1016.3
2018-01-07T07:00:58.972Z,1016.3
2018-01-07T07:02:01.255Z,1016.3
2018-01-07T07:03:03.452Z,1016.3
2018-01-07T07:04:05.625Z,1016.4
2018-01-07T07:05:07.774Z,1016.4
2018-01-07T07:06:11.901Z,1016.4
2018-01-07T07:07:13.955Z,1016.5
2018-01-07T07:08:16.073Z,1016.6
2018-01-07T07:09:18.197Z,1016.6
2018-01-07T07:10:21.258Z,1016.6
2018-01-07T07:11:23.408Z,1016.5
2018-01-07T07:12:25.461Z,1016.6
2018-01-07T07:13:27.677Z,1016.7
2018-01-07T07:14:29.919Z,1016.7
2018-01-07T07:15:31.989Z,1016.8
2018-01-07T07:16:36.239Z,1016.9
2018-01-07T07:17:38.410Z,1016.8
2018-01-07T07:18:40.484Z,1016.9
2018-01-07T07:19:44.173Z,1016.9
2018-01-07T07:20:46.170Z,1017.0
2018-01-07T07:21:50.902Z,1017.0
2018-01-07T07:22:52.869Z,1016.9
2018-01-07T07:23:55.134Z,1017.0
2018-01-07T07:24:57.346Z,1017.0
2018-01-07T07:25:59.474Z,1017.1
2018-01-07T07:27:03.212Z,1017.0
2018-01-07T07:28:07.894Z,1017.1
2018-01-07T07:29:09.910Z,1017.1
2018-01-07T07:30:11.970Z,1017.1
2018-01-07T07:31:14.528Z,1017.2
2018-01-07T07:32:16.658Z,1017.2
2018-01-07T07:33:18.974Z,1017.2
2018-01-07T07:34:21.212Z,1017.2
2018-01-07T07:35:24.980Z,1017.2
2018-01-07T07:36:27.029Z,1017.2
2018-01-07T07:37:29.880Z,1017.3
2018-01-07T07:38:33.449Z,1017.2
2018-01-07T07:39:35.684Z,1017.2
2018-01-07T07:40:38.399Z,1017.3
2018-01-07T07:41:40.391Z,1017.3
2018-01-07T07:42:42.554Z,1017.3
2018-01-07T07:43:44.645Z,1017.4
2018-01-07T07:44:46.731Z,1017.3
2018-01-07T07:45:48.904Z,1017.4
2018-01-07T07:46:50.994Z,1017.4
2018-01-07T07:47:53.038Z,1017.3
2018-01-07T07:48:55.442Z,1017.4
2018-01-07T07:49:57.682Z,1017.3
2018-01-07T07:50:59.885Z,1017.5
2018-01-07T07:52:02.778Z,1017.4
2018-01-07T07:53:04.717Z,1017.4
2018-01-07T07:54:06.828Z,1017.4
2018-01-07T07:55:09.841Z,1017.3
2018-01-07T07:56:14.206Z,1017.4
2018-01-07T07:57:16.458Z,1017.5
2018-01-07T07:58:18.515Z,1017.4
2018-01-07T07:59:20.713Z,1017.5
2018-01-07T08:00:22.836Z,1017.4
2018-01-07T08:01:24.988Z,1017.5
2018-01-07T08:02:27.132Z,1017.5
2018-01-07T08:03:29.273Z,1017.4
2018-01-07T08:04:33.188Z,1017.5
2018-01-07T08:05:35.271Z,1017.6
2018-01-07T08:06:37.335Z,1017.5
2018-01-07T08:08:51.937Z,1017.6
2018-01-07T08:09:55.320Z,1017.6
2018-01-07T08:10:59.372Z,1017.6
2018-01-07T08:12:01.966Z,1017.7
2018-01-07T08:13:04.230Z,1017.6
2018-01-07T08:14:06.745Z,1017.6
2018-01-07T08:15:08.623Z,1017.7
2018-01-07T08:16:11.080Z,1017.6
2018-01-07T08:17:13.274Z,1017.6
2018-01-07T08:18:15.595Z,1017.6
2018-01-07T08:19:18.226Z,1017.6
2018-01-07T08:20:20.420Z,1017.7
2018-01-07T08:21:22.908Z,1017.6
2018-01-07T08:22:25.006Z,1017.6
2018-01-07T08:23:27.122Z,1017.7
2018-01-07T08:24:29.276Z,1017.8
2018-01-07T08:25:31.387Z,1017.8
2018-01-07T08:26:33.801Z,1017.8
2018-01-07T08:28:45.485Z,1017.9
2018-01-07T08:30:57.067Z,1017.9
2018-01-07T08:31:58.919Z,1017.9
2018-01-07T08:33:00.610Z,1018.0
2018-01-07T08:34:02.710Z,1018.0
2018-01-07T08:35:07.148Z,1017.9
2018-01-07T08:36:08.848Z,1017.9
2018-01-07T08:37:10.544Z,1017.9
2018-01-07T08:38:12.282Z,1018.0
2018-01-07T08:39:13.947Z,1017.9
2018-01-07T08:40:15.654Z,1018.0
2018-01-07T08:41:17.326Z,1018.0
2018-01-07T08:42:19.213Z,1018.1
2018-01-07T08:43:20.952Z,1018.1
2018-01-07T08:44:22.573Z,1018.1
2018-01-07T08:45:24.453Z,1018.2
2018-01-07T08:46:26.142Z,1018.2
2018-01-07T08:47:28.695Z,1018.2
2018-01-07T08:48:30.407Z,1018.2
2018-01-07T08:49:32.556Z,1018.2
2018-01-07T08:50:34.361Z,1018.3
2018-01-07T08:51:36.491Z,1018.2
2018-01-07T08:52:39.233Z,1018.3
2018-01-07T08:53:41.011Z,1018.2
2018-01-07T08:54:43.035Z,1018.3
2018-01-07T08:55:44.766Z,1018.2
2018-01-07T08:56:47.188Z,1018.2
2018-01-07T08:57:48.911Z,1018.3
2018-01-07T08:58:50.608Z,1018.3
2018-01-07T08:59:52.320Z,1018.3
2018-01-07T09:00:54.677Z,1018.3
2018-01-07T09:01:59.241Z,1018.3
2018-01-07T09:03:01.004Z,1018.4
2018-01-07T09:04:03.749Z,1018.5
2018-01-07T09:05:05.419Z,1018.4
2018-01-07T09:06:07.160Z,1018.5
2018-01-07T09:07:08.942Z,1018.5
2018-01-07T09:08:10.723Z,1018.5
2018-01-07T09:09:13.242Z,1018.5
2018-01-07T09:10:14.935Z,1018.5
2018-01-07T09:11:16.637Z,1018.5
2018-01-07T09:12:18.345Z,1018.6
2018-01-07T09:13:20.077Z,1018.6
2018-01-07T09:14:22.062Z,1018.6
2018-01-07T09:15:23.833Z,1018.6
2018-01-07T09:16:32.202Z,1018.6
2018-01-07T09:17:34.254Z,1018.7
2018-01-07T09:18:36.148Z,1018.7
2018-01-07T09:19:37.887Z,1018.8
2018-01-07T09:20:39.602Z,1018.8
2018-01-07T09:21:44.421Z,1018.8
2018-01-07T09:22:46.736Z,1018.8
2018-01-07T09:23:48.424Z,1018.8
2018-01-07T09:24:50.355Z,1018.9
2018-01-07T09:25:52.141Z,1018.9
2018-01-07T09:26:54.004Z,1018.9
2018-01-07T09:27:56.141Z,1018.9
2018-01-07T09:28:58.273Z,1018.9
2018-01-07T09:30:00.085Z,1018.9
2018-01-07T09:31:01.860Z,1019.0
2018-01-07T09:32:03.528Z,1019.0
2018-01-07T09:33:08.243Z,1019.0
2018-01-07T09:34:10.204Z,1019.1
2018-01-07T09:35:11.957Z,1019.0
2018-01-07T09:36:13.680Z,1019.0
2018-01-07T09:37:16.020Z,1019.1
2018-01-07T09:38:20.727Z,1019.0
2018-01-07T09:39:23.169Z,1019.1
2018-01-07T09:40:24.883Z,1019.1
2018-01-07T09:41:33.216Z,1019.1
2018-01-07T09:42:34.919Z,1019.2
2018-01-07T09:43:37.178Z,1019.2
2018-01-07T09:44:39.216Z,1019.2
2018-01-07T09:45:41.743Z,1019.2
2018-01-07T09:46:44.196Z,1019.1
2018-01-07T09:47:46.008Z,1019.1
2018-01-07T09:48:48.204Z,1019.1
2018-01-07T09:49:49.872Z,1019.2
2018-01-07T09:50:51.599Z,1019.1
2018-01-07T09:51:54.341Z,1019.1
2018-01-07T09:52:56.201Z,1019.1
2018-01-07T09:53:58.717Z,1019.1
2018-01-07T09:55:00.805Z,1019.2
2018-01-07T09:56:02.869Z,1019.2
2018-01-07T09:57:05.049Z,1019.2
2018-01-07T09:58:07.271Z,1019.2
2018-01-07T09:59:08.920Z,1019.2
2018-01-07T10:00:17.258Z,1019.2
2018-01-07T10:01:19.686Z,1019.2
2018-01-07T10:02:22.627Z,1019.2
2018-01-07T10:03:24.385Z,1019.1
2018-01-07T10:04:26.691Z,1019.2
2018-01-07T10:05:28.380Z,1019.2
2018-01-07T10:06:30.498Z,1019.2
2018-01-07T10:07:32.183Z,1019.2
2018-01-07T10:08:33.901Z,1019.2
2018-01-07T10:09:35.552Z,1019.3
2018-01-07T10:10:37.255Z,1019.3
2018-01-07T10:11:38.958Z,1019.2
2018-01-07T10:12:40.628Z,1019.2
2018-01-07T10:13:42.598Z,1019.3
2018-01-07T10:14:45.197Z,1019.2
2018-01-07T10:15:46.909Z,1019.3
2018-01-07T10:16:49.240Z,1019.3
2018-01-07T10:17:50.947Z,1019.3
2018-01-07T10:18:52.638Z,1019.4
2018-01-07T10:19:57.156Z,1019.4
2018-01-07T10:20:58.877Z,1019.5
2018-01-07T10:22:00.568Z,1019.5
2018-01-07T10:23:02.376Z,1019.5
2018-01-07T10:24:04.108Z,1019.5
2018-01-07T10:25:05.942Z,1019.5
2018-01-07T10:26:07.731Z,1019.6
2018-01-07T10:27:12.239Z,1019.7
2018-01-07T10:28:13.978Z,1020.0
2018-01-07T10:29:15.635Z,1019.8
2018-01-07T10:30:17.403Z,1020.2
2018-01-07T10:31:19.176Z,1020.1
2018-01-07T10:32:20.847Z,1020.1
2018-01-07T10:33:23.213Z,1020.1
2018-01-07T10:34:25.352Z,1020.3
2018-01-07T10:35:27.531Z,1020.1
2018-01-07T10:36:29.330Z,1020.2
2018-01-07T10:39:53.008Z,1020.2
2018-01-07T10:40:54.667Z,1020.2
2018-01-07T10:41:56.332Z,1020.1
2018-01-07T10:42:59.616Z,1020.2
2018-01-07T10:44:01.591Z,1020.1
2018-01-07T10:45:03.683Z,1020.0
2018-01-07T10:46:06.404Z,1020.0
2018-01-07T10:47:08.651Z,1020.0
2018-01-07T10:48:11.601Z,1020.0
2018-01-07T10:49:13.716Z,1019.9
2018-01-07T10:50:15.784Z,1019.9
2018-01-07T10:51:17.636Z,1019.7
2018-01-07T10:52:19.954Z,1019.7
2018-01-07T10:53:21.963Z,1019.6
2018-01-07T10:54:24.097Z,1019.6
2018-01-07T10:55:26.690Z,1019.6
2018-01-07T10:56:29.066Z,1019.6
2018-01-07T10:57:31.725Z,1019.5
2018-01-07T10:58:33.869Z,1019.5
2018-01-07T10:59:36.066Z,1019.5
2018-01-07T11:00:38.764Z,1019.6
2018-01-07T11:01:42.075Z,1019.5
2018-01-07T11:02:44.150Z,1019.5
2018-01-07T11:03:46.455Z,1019.5
2018-01-07T11:04:48.899Z,1019.6
2018-01-07T11:05:51.318Z,1019.6
2018-01-07T11:06:53.483Z,1019.5
2018-01-07T11:07:55.940Z,1019.6
2018-01-07T11:08:58.533Z,1019.5
2018-01-07T11:10:01.127Z,1019.5
2018-01-07T11:11:03.958Z,1019.5
2018-01-07T11:12:06.140Z,1019.5
2018-01-07T11:13:08.203Z,1019.5
2018-01-07T11:14:10.470Z,1019.6
2018-01-07T11:15:12.520Z,1019.5
2018-01-07T11:16:14.730Z,1019.5
2018-01-07T11:17:16.825Z,1019.5
2018-01-07T11:18:19.553Z,1019.5
2018-01-07T11:19:22.313Z,1019.5
2018-01-07T11:20:24.869Z,1019.5
2018-01-07T11:21:27.021Z,1019.5
2018-01-07T11:22:29.113Z,1019.4
2018-01-07T11:23:31.275Z,1019.5
2018-01-07T11:24:33.884Z,1019.6
2018-01-07T11:25:36.368Z,1019.5
2018-01-07T11:26:39.177Z,1019.5
2018-01-07T11:27:41.914Z,1019.5
2018-01-07T11:28:44.184Z,1019.5
2018-01-07T11:29:46.842Z,1019.5
2018-01-07T11:30:49.413Z,1019.5
2018-01-07T11:31:52.818Z,1019.5
2018-01-07T11:32:55.437Z,1019.5
2018-01-07T11:33:57.472Z,1019.5
2018-01-07T11:34:59.826Z,1019.5
2018-01-07T11:36:02.549Z,1019.5
2018-01-07T11:37:04.760Z,1019.5
2018-01-07T11:38:07.884Z,1019.5
2018-01-07T11:39:10.084Z,1019.5
2018-01-07T11:40:13.400Z,1019.5
2018-01-07T11:41:16.289Z,1019.5
2018-01-07T11:42:18.264Z,1019.5
2018-01-07T11:43:20.266Z,1019.5
2018-01-07T11:44:22.402Z,1019.5
2018-01-07T11:45:25.555Z,1019.5
2018-01-07T11:46:28.967Z,1019.5
2018-01-07T11:47:31.393Z,1019.5
2018-01-07T11:48:34.084Z,1019.5
2018-01-07T11:49:36.525Z,1019.5
2018-01-07T11:50:38.702Z,1019.6
2018-01-07T11:51:41.398Z,1019.6
2018-01-07T11:52:44.867Z,1019.5
2018-01-07T11:53:47.066Z,1019.6
2018-01-07T11:54:49.972Z,1019.5
2018-01-07T11:55:52.540Z,1019.6
2018-01-07T11:56:55.655Z,1019.5
2018-01-07T11:57:57.616Z,1019.5
2018-01-07T11:58:59.781Z,1019.5
2018-01-07T12:00:01.784Z,1019.6
2018-01-07T12:01:03.783Z,1019.6
2018-01-07T12:02:06.523Z,1019.5
2018-01-07T12:03:08.896Z,1019.5
2018-01-07T12:04:11.421Z,1019.4
2018-01-07T12:05:13.959Z,1019.4
2018-01-07T12:06:15.969Z,1019.5
2018-01-07T12:07:18.038Z,1019.4
2018-01-07T12:08:20.812Z,1019.5
2018-01-07T12:09:25.469Z,1019.4
2018-01-07T12:10:27.565Z,1019.5
2018-01-07T12:11:29.688Z,1019.4
2018-01-07T12:12:32.456Z,1019.5
2018-01-07T12:13:34.569Z,1019.5
2018-01-07T12:14:38.153Z,1019.3
2018-01-07T12:15:40.194Z,1019.4
2018-01-07T12:16:42.460Z,1019.4
2018-01-07T12:17:46.788Z,1019.4
2018-01-07T12:18:48.818Z,1019.4
2018-01-07T12:19:51.827Z,1019.4
2018-01-07T12:20:54.188Z,1019.4
2018-01-07T12:21:57.021Z,1019.4
2018-01-07T12:22:59.100Z,1019.4
2018-01-07T12:24:01.147Z,1019.4
2018-01-07T12:25:03.192Z,1019.4
2018-01-07T12:26:05.978Z,1019.3
2018-01-07T12:27:08.129Z,1019.4
2018-01-07T12:28:11.236Z,1019.4
2018-01-07T12:29:14.173Z,1019.4
2018-01-07T12:30:18.955Z,1019.3
2018-01-07T12:31:21.421Z,1019.5
2018-01-07T12:32:24.109Z,1019.4
2018-01-07T12:33:26.233Z,1019.3
2018-01-07T12:34:28.540Z,1019.3
2018-01-07T12:35:30.569Z,1019.3
2018-01-07T12:36:32.873Z,1019.3
2018-01-07T12:37:34.804Z,1019.3
2018-01-07T12:38:38.359Z,1019.4
2018-01-07T12:39:40.472Z,1019.3
2018-01-07T12:40:42.471Z,1019.3
2018-01-07T12:41:47.795Z,1019.3
2018-01-07T12:42:52.770Z,1019.3
2018-01-07T12:43:55.646Z,1019.3
2018-01-07T12:45:00.202Z,1019.2
2018-01-07T12:46:02.190Z,1019.2
2018-01-07T12:47:05.626Z,1019.1
2018-01-07T12:48:08.229Z,1019.1
2018-01-07T12:49:12.570Z,1019.2
2018-01-07T12:50:16.998Z,1019.1
2018-01-07T12:51:19.447Z,1019.1
2018-01-07T12:52:22.556Z,1019.1
2018-01-07T12:53:24.690Z,1019.1
2018-01-07T12:54:27.523Z,1019.1
2018-01-07T12:55:30.532Z,1019.1
2018-01-07T12:56:32.648Z,1019.1
2018-01-07T12:57:34.825Z,1019.2
2018-01-07T12:58:37.598Z,1019.1
2018-01-07T12:59:39.784Z,1019.0
2018-01-07T13:00:41.844Z,1019.1
2018-01-07T13:01:43.904Z,1019.1
2018-01-07T13:02:46.129Z,1019.1
2018-01-07T13:03:50.052Z,1019.0
2018-01-07T13:04:52.215Z,1019.1